sensor_id;sensor_type;location;lat;lon;timestamp;temperature;humidity
54260;DHT22;40172;53.022;7.012;2023-03-01T00:01:12;-2.10;99.90
54260;DHT22;40172;53.022;7.012;2023-03-01T00:03:38;-2.20;99.90
54260;DHT22;40172;53.022;7.012;2023-03-01T00:06:04;-2.10;99.90
54260;DHT22;40172;53.022;7.012;2023-03-01T00:08:31;-2.10;99.90
54260;DHT22;40172;53.022;7.012;2023-03-01T00:13:31;-2.20;99.90
54260;DHT22;40172;53.022;7.012;2023-03-01T00:15:57;-2.20;99.90
54260;DHT22;40172;53.022;7.012;2023-03-01T00:18:23;-2.20;99.90
54260;DHT22;40172;53.022;7.012;2023-03-01T00:20:53;-2.20;99.90
54260;DHT22;40172;53.022;7.012;2023-03-01T00:23:19;-2.20;99.90
54260;DHT22;40172;53.022;7.012;2023-03-01T00:25:45;-2.20;99.90
54260;DHT22;40172;53.022;7.012;2023-03-01T00:28:10;-2.20;99.90
54260;DHT22;40172;53.022;7.012;2023-03-01T00:30:36;-2.20;99.90
54260;DHT22;40172;53.022;7.012;2023-03-01T00:33:02;-2.20;99.90
54260;DHT22;40172;53.022;7.012;2023-03-01T00:35:27;-2.20;99.90
54260;DHT22;40172;53.022;7.012;2023-03-01T00:37:53;-2.30;99.90
54260;DHT22;40172;53.022;7.012;2023-03-01T00:40:31;-2.30;99.90
54260;DHT22;40172;53.022;7.012;2023-03-01T00:42:57;-2.20;99.90
54260;DHT22;40172;53.022;7.012;2023-03-01T00:45:22;-2.20;99.90
54260;DHT22;40172;53.022;7.012;2023-03-01T00:47:49;-2.30;99.90
54260;DHT22;40172;53.022;7.012;2023-03-01T00:50:15;-2.30;99.90
54260;DHT22;40172;53.022;7.012;2023-03-01T00:52:41;-2.30;99.90
54260;DHT22;40172;53.022;7.012;2023-03-01T00:55:07;-2.30;99.90
54260;DHT22;40172;53.022;7.012;2023-03-01T00:57:33;-2.30;99.90
54260;DHT22;40172;53.022;7.012;2023-03-01T00:59:59;-2.30;99.90
54260;DHT22;40172;53.022;7.012;2023-03-01T01:02:25;-2.40;99.90
54260;DHT22;40172;53.022;7.012;2023-03-01T01:04:51;-2.40;99.90
54260;DHT22;40172;53.022;7.012;2023-03-01T01:07:17;-2.30;99.90
54260;DHT22;40172;53.022;7.012;2023-03-01T01:09:45;-2.30;99.90
54260;DHT22;40172;53.022;7.012;2023-03-01T01:12:11;-2.40;99.90
54260;DHT22;40172;53.022;7.012;2023-03-01T01:14:36;-2.40;99.90
54260;DHT22;40172;53.022;7.012;2023-03-01T01:17:02;-2.40;99.90
54260;DHT22;40172;53.022;7.012;2023-03-01T01:19:28;-2.40;99.90
54260;DHT22;40172;53.022;7.012;2023-03-01T01:21:53;-2.40;99.90
54260;DHT22;40172;53.022;7.012;2023-03-01T01:24:19;-2.40;99.90
54260;DHT22;40172;53.022;7.012;2023-03-01T01:26:45;-2.30;99.90
54260;DHT22;40172;53.022;7.012;2023-03-01T01:29:11;-2.50;99.90
54260;DHT22;40172;53.022;7.012;2023-03-01T01:31:39;-2.50;99.90
54260;DHT22;40172;53.022;7.012;2023-03-01T01:34:06;-2.50;99.90
54260;DHT22;40172;53.022;7.012;2023-03-01T01:36:33;-2.60;99.90
54260;DHT22;40172;53.022;7.012;2023-03-01T01:38:59;-2.20;99.90
54260;DHT22;40172;53.022;7.012;2023-03-01T01:41:27;-2.70;99.90
54260;DHT22;40172;53.022;7.012;2023-03-01T01:47:04;-2.70;99.90
54260;DHT22;40172;53.022;7.012;2023-03-01T01:49:41;-2.70;99.90
54260;DHT22;40172;53.022;7.012;2023-03-01T01:52:17;-2.80;99.90
54260;DHT22;40172;53.022;7.012;2023-03-01T01:55:04;-2.80;99.90
54260;DHT22;40172;53.022;7.012;2023-03-01T01:57:40;-2.30;99.90
54260;DHT22;40172;53.022;7.012;2023-03-01T02:00:13;-2.70;99.90
54260;DHT22;40172;53.022;7.012;2023-03-01T02:02:40;-2.70;99.90
54260;DHT22;40172;53.022;7.012;2023-03-01T02:05:36;-2.80;99.90
54260;DHT22;40172;53.022;7.012;2023-03-01T02:08:03;-2.70;99.90
54260;DHT22;40172;53.022;7.012;2023-03-01T02:10:32;-2.70;99.90
54260;DHT22;40172;53.022;7.012;2023-03-01T02:12:58;-2.90;99.90
54260;DHT22;40172;53.022;7.012;2023-03-01T02:15:25;-2.80;99.90
54260;DHT22;40172;53.022;7.012;2023-03-01T02:17:52;-2.40;99.90
54260;DHT22;40172;53.022;7.012;2023-03-01T02:23:01;-2.80;99.90
54260;DHT22;40172;53.022;7.012;2023-03-01T02:25:56;-2.90;99.90
54260;DHT22;40172;53.022;7.012;2023-03-01T02:28:33;-2.90;99.90
54260;DHT22;40172;53.022;7.012;2023-03-01T02:31:02;-2.90;99.90
54260;DHT22;40172;53.022;7.012;2023-03-01T02:33:47;-2.90;99.90
54260;DHT22;40172;53.022;7.012;2023-03-01T02:36:25;-3.00;99.90
54260;DHT22;40172;53.022;7.012;2023-03-01T02:38:54;-3.00;99.90
54260;DHT22;40172;53.022;7.012;2023-03-01T02:41:22;-3.10;99.90
54260;DHT22;40172;53.022;7.012;2023-03-01T02:43:48;-3.10;99.90
54260;DHT22;40172;53.022;7.012;2023-03-01T02:46:20;-3.20;99.90
54260;DHT22;40172;53.022;7.012;2023-03-01T02:48:55;-3.20;99.90
54260;DHT22;40172;53.022;7.012;2023-03-01T02:51:42;-3.20;99.90
54260;DHT22;40172;53.022;7.012;2023-03-01T02:56:48;-3.30;99.90
54260;DHT22;40172;53.022;7.012;2023-03-01T02:59:16;-3.20;99.90
54260;DHT22;40172;53.022;7.012;2023-03-01T03:01:43;-3.20;99.90
54260;DHT22;40172;53.022;7.012;2023-03-01T03:04:11;-3.20;99.90
54260;DHT22;40172;53.022;7.012;2023-03-01T03:06:43;-3.20;99.90
54260;DHT22;40172;53.022;7.012;2023-03-01T03:09:08;-3.10;99.90
54260;DHT22;40172;53.022;7.012;2023-03-01T03:11:34;-3.10;99.90
54260;DHT22;40172;53.022;7.012;2023-03-01T03:16:28;-3.10;99.90
54260;DHT22;40172;53.022;7.012;2023-03-01T03:18:55;-3.20;99.90
54260;DHT22;40172;53.022;7.012;2023-03-01T03:21:31;-3.30;99.90
54260;DHT22;40172;53.022;7.012;2023-03-01T03:23:57;-3.30;99.90
54260;DHT22;40172;53.022;7.012;2023-03-01T03:26:23;-3.30;99.90
54260;DHT22;40172;53.022;7.012;2023-03-01T03:28:48;-3.30;99.90
54260;DHT22;40172;53.022;7.012;2023-03-01T03:31:14;-3.30;99.90
54260;DHT22;40172;53.022;7.012;2023-03-01T03:33:39;-3.30;99.90
54260;DHT22;40172;53.022;7.012;2023-03-01T03:36:05;-3.30;99.90
54260;DHT22;40172;53.022;7.012;2023-03-01T03:38:31;-3.20;99.90
54260;DHT22;40172;53.022;7.012;2023-03-01T03:41:03;-3.20;99.90
54260;DHT22;40172;53.022;7.012;2023-03-01T03:43:32;-3.10;99.90
54260;DHT22;40172;53.022;7.012;2023-03-01T03:45:58;-3.20;99.90
54260;DHT22;40172;53.022;7.012;2023-03-01T03:48:24;-3.20;99.90
54260;DHT22;40172;53.022;7.012;2023-03-01T03:50:52;-3.30;99.90
54260;DHT22;40172;53.022;7.012;2023-03-01T03:53:19;-3.30;99.90
54260;DHT22;40172;53.022;7.012;2023-03-01T03:55:45;-3.30;99.90
54260;DHT22;40172;53.022;7.012;2023-03-01T03:58:15;-3.40;99.90
54260;DHT22;40172;53.022;7.012;2023-03-01T04:00:43;-3.40;99.90
54260;DHT22;40172;53.022;7.012;2023-03-01T04:03:10;-3.40;99.90
54260;DHT22;40172;53.022;7.012;2023-03-01T04:05:38;-3.40;99.90
54260;DHT22;40172;53.022;7.012;2023-03-01T04:08:04;-3.40;99.90
54260;DHT22;40172;53.022;7.012;2023-03-01T04:10:42;-3.40;99.90
54260;DHT22;40172;53.022;7.012;2023-03-01T04:13:14;-3.40;99.90
54260;DHT22;40172;53.022;7.012;2023-03-01T04:15:40;-3.40;99.90
54260;DHT22;40172;53.022;7.012;2023-03-01T04:18:06;-4.00;99.90
54260;DHT22;40172;53.022;7.012;2023-03-01T04:20:34;-3.50;99.90
54260;DHT22;40172;53.022;7.012;2023-03-01T04:23:16;-3.50;99.90
54260;DHT22;40172;53.022;7.012;2023-03-01T04:25:54;-3.50;99.90
54260;DHT22;40172;53.022;7.012;2023-03-01T04:28:25;-3.50;99.90
54260;DHT22;40172;53.022;7.012;2023-03-01T04:30:52;-3.50;99.90
54260;DHT22;40172;53.022;7.012;2023-03-01T04:33:18;-3.50;99.90
54260;DHT22;40172;53.022;7.012;2023-03-01T04:35:44;-3.60;99.90
54260;DHT22;40172;53.022;7.012;2023-03-01T04:38:10;-3.60;99.90
54260;DHT22;40172;53.022;7.012;2023-03-01T04:40:36;-3.60;99.90
54260;DHT22;40172;53.022;7.012;2023-03-01T04:43:03;-3.70;99.90
54260;DHT22;40172;53.022;7.012;2023-03-01T04:45:29;-3.60;99.90
54260;DHT22;40172;53.022;7.012;2023-03-01T04:47:54;-3.60;99.90
54260;DHT22;40172;53.022;7.012;2023-03-01T04:50:23;-3.50;99.90
54260;DHT22;40172;53.022;7.012;2023-03-01T04:52:49;-3.50;99.90
54260;DHT22;40172;53.022;7.012;2023-03-01T04:55:15;-3.50;99.90
54260;DHT22;40172;53.022;7.012;2023-03-01T04:57:41;-3.60;99.90
54260;DHT22;40172;53.022;7.012;2023-03-01T05:00:09;-3.60;99.90
54260;DHT22;40172;53.022;7.012;2023-03-01T05:02:59;-3.60;99.90
54260;DHT22;40172;53.022;7.012;2023-03-01T05:05:28;-3.70;99.90
54260;DHT22;40172;53.022;7.012;2023-03-01T05:08:00;-3.60;99.90
54260;DHT22;40172;53.022;7.012;2023-03-01T05:10:27;-3.70;99.90
54260;DHT22;40172;53.022;7.012;2023-03-01T05:12:55;-3.70;99.90
54260;DHT22;40172;53.022;7.012;2023-03-01T05:15:23;-3.70;99.90
54260;DHT22;40172;53.022;7.012;2023-03-01T05:17:51;-3.70;99.90
54260;DHT22;40172;53.022;7.012;2023-03-01T05:20:17;-3.70;99.90
54260;DHT22;40172;53.022;7.012;2023-03-01T05:22:43;-3.10;99.90
54260;DHT22;40172;53.022;7.012;2023-03-01T05:25:09;-3.70;99.90
54260;DHT22;40172;53.022;7.012;2023-03-01T05:27:35;-3.70;99.90
54260;DHT22;40172;53.022;7.012;2023-03-01T05:30:02;-3.70;99.90
54260;DHT22;40172;53.022;7.012;2023-03-01T05:32:42;-3.40;99.90
54260;DHT22;40172;53.022;7.012;2023-03-01T05:35:10;-3.70;99.90
54260;DHT22;40172;53.022;7.012;2023-03-01T05:37:42;-3.80;99.90
54260;DHT22;40172;53.022;7.012;2023-03-01T05:40:10;-3.80;99.90
54260;DHT22;40172;53.022;7.012;2023-03-01T05:42:42;-3.80;99.90
54260;DHT22;40172;53.022;7.012;2023-03-01T05:45:08;-3.80;99.90
54260;DHT22;40172;53.022;7.012;2023-03-01T05:47:35;-3.80;99.90
54260;DHT22;40172;53.022;7.012;2023-03-01T05:50:01;-3.90;99.90
54260;DHT22;40172;53.022;7.012;2023-03-01T05:52:26;-3.90;99.90
54260;DHT22;40172;53.022;7.012;2023-03-01T05:54:52;-3.90;99.90
54260;DHT22;40172;53.022;7.012;2023-03-01T05:57:18;-3.80;99.90
54260;DHT22;40172;53.022;7.012;2023-03-01T05:59:43;-3.80;99.90
54260;DHT22;40172;53.022;7.012;2023-03-01T06:02:09;-3.80;99.90
54260;DHT22;40172;53.022;7.012;2023-03-01T06:04:34;-3.90;99.90
54260;DHT22;40172;53.022;7.012;2023-03-01T06:07:00;-3.90;99.90
54260;DHT22;40172;53.022;7.012;2023-03-01T06:09:25;-3.90;99.90
54260;DHT22;40172;53.022;7.012;2023-03-01T06:11:51;-3.90;99.90
54260;DHT22;40172;53.022;7.012;2023-03-01T06:14:17;-3.80;99.90
54260;DHT22;40172;53.022;7.012;2023-03-01T06:16:42;-4.00;99.90
54260;DHT22;40172;53.022;7.012;2023-03-01T06:19:08;-4.00;99.90
54260;DHT22;40172;53.022;7.012;2023-03-01T06:21:33;-4.00;99.90
54260;DHT22;40172;53.022;7.012;2023-03-01T06:23:59;-4.00;99.90
54260;DHT22;40172;53.022;7.012;2023-03-01T06:26:24;-4.00;99.90
54260;DHT22;40172;53.022;7.012;2023-03-01T06:28:50;-3.90;99.90
54260;DHT22;40172;53.022;7.012;2023-03-01T06:31:15;-4.00;99.90
54260;DHT22;40172;53.022;7.012;2023-03-01T06:33:41;-4.00;99.90
54260;DHT22;40172;53.022;7.012;2023-03-01T06:36:07;-4.00;99.90
54260;DHT22;40172;53.022;7.012;2023-03-01T06:38:33;-3.90;99.90
54260;DHT22;40172;53.022;7.012;2023-03-01T06:40:59;-3.90;99.90
54260;DHT22;40172;53.022;7.012;2023-03-01T06:43:24;-3.80;99.90
54260;DHT22;40172;53.022;7.012;2023-03-01T06:45:50;-3.80;99.90
54260;DHT22;40172;53.022;7.012;2023-03-01T06:48:16;-3.80;99.90
54260;DHT22;40172;53.022;7.012;2023-03-01T06:50:41;-3.70;99.90
54260;DHT22;40172;53.022;7.012;2023-03-01T06:53:07;-3.80;99.90
54260;DHT22;40172;53.022;7.012;2023-03-01T06:55:33;-3.70;99.90
54260;DHT22;40172;53.022;7.012;2023-03-01T06:58:00;-3.60;99.90
54260;DHT22;40172;53.022;7.012;2023-03-01T07:00:26;-3.60;99.90
54260;DHT22;40172;53.022;7.012;2023-03-01T07:02:52;-3.50;99.90
54260;DHT22;40172;53.022;7.012;2023-03-01T07:05:18;-3.40;99.90
54260;DHT22;40172;53.022;7.012;2023-03-01T07:07:44;-3.00;99.90
54260;DHT22;40172;53.022;7.012;2023-03-01T07:10:10;-3.40;99.90
54260;DHT22;40172;53.022;7.012;2023-03-01T07:12:36;-3.20;99.90
54260;DHT22;40172;53.022;7.012;2023-03-01T07:15:02;-3.10;99.90
54260;DHT22;40172;53.022;7.012;2023-03-01T07:17:29;-2.90;99.90
54260;DHT22;40172;53.022;7.012;2023-03-01T07:19:54;-2.80;99.90
54260;DHT22;40172;53.022;7.012;2023-03-01T07:22:20;-2.80;99.90
54260;DHT22;40172;53.022;7.012;2023-03-01T07:24:45;-2.70;99.90
54260;DHT22;40172;53.022;7.012;2023-03-01T07:27:11;-2.60;99.90
54260;DHT22;40172;53.022;7.012;2023-03-01T07:29:37;-2.60;99.90
54260;DHT22;40172;53.022;7.012;2023-03-01T07:32:03;-2.50;99.90
54260;DHT22;40172;53.022;7.012;2023-03-01T07:34:29;-2.30;99.90
54260;DHT22;40172;53.022;7.012;2023-03-01T07:36:55;-2.30;99.90
54260;DHT22;40172;53.022;7.012;2023-03-01T07:39:20;-2.20;99.90
54260;DHT22;40172;53.022;7.012;2023-03-01T07:41:51;-2.20;99.90
54260;DHT22;40172;53.022;7.012;2023-03-01T07:44:17;-2.10;99.90
54260;DHT22;40172;53.022;7.012;2023-03-01T07:46:44;-3.50;99.90
54260;DHT22;40172;53.022;7.012;2023-03-01T07:49:09;-2.10;99.90
54260;DHT22;40172;53.022;7.012;2023-03-01T07:51:35;-2.30;99.90
54260;DHT22;40172;53.022;7.012;2023-03-01T07:54:01;-1.70;99.90
54260;DHT22;40172;53.022;7.012;2023-03-01T07:56:27;-1.70;99.90
54260;DHT22;40172;53.022;7.012;2023-03-01T07:58:52;-0.30;99.90
54260;DHT22;40172;53.022;7.012;2023-03-01T08:01:19;-2.40;99.90
54260;DHT22;40172;53.022;7.012;2023-03-01T08:03:48;-1.50;99.90
54260;DHT22;40172;53.022;7.012;2023-03-01T08:06:16;0.10;99.90
54260;DHT22;40172;53.022;7.012;2023-03-01T08:08:42;-1.70;99.90
54260;DHT22;40172;53.022;7.012;2023-03-01T08:11:10;-2.40;99.90
54260;DHT22;40172;53.022;7.012;2023-03-01T08:13:37;0.70;99.90
54260;DHT22;40172;53.022;7.012;2023-03-01T08:16:08;-2.00;99.90
54260;DHT22;40172;53.022;7.012;2023-03-01T08:18:35;-2.00;99.90
54260;DHT22;40172;53.022;7.012;2023-03-01T08:21:29;-0.10;99.90
54260;DHT22;40172;53.022;7.012;2023-03-01T08:24:03;-2.00;99.90
54260;DHT22;40172;53.022;7.012;2023-03-01T08:26:32;-1.20;99.90
54260;DHT22;40172;53.022;7.012;2023-03-01T08:29:01;1.00;99.90
54260;DHT22;40172;53.022;7.012;2023-03-01T08:31:35;0.70;99.90
54260;DHT22;40172;53.022;7.012;2023-03-01T08:34:06;-0.60;99.90
54260;DHT22;40172;53.022;7.012;2023-03-01T08:36:36;0.50;99.90
54260;DHT22;40172;53.022;7.012;2023-03-01T08:39:06;0.50;99.90
54260;DHT22;40172;53.022;7.012;2023-03-01T08:41:38;-1.40;99.90
54260;DHT22;40172;53.022;7.012;2023-03-01T08:44:15;-0.50;99.90
54260;DHT22;40172;53.022;7.012;2023-03-01T08:46:49;0.20;99.90
54260;DHT22;40172;53.022;7.012;2023-03-01T08:49:18;1.90;99.90
54260;DHT22;40172;53.022;7.012;2023-03-01T08:51:45;-0.30;99.90
54260;DHT22;40172;53.022;7.012;2023-03-01T08:54:19;-1.40;99.90
54260;DHT22;40172;53.022;7.012;2023-03-01T08:56:46;-0.90;99.90
54260;DHT22;40172;53.022;7.012;2023-03-01T08:59:15;-0.70;99.90
54260;DHT22;40172;53.022;7.012;2023-03-01T09:01:42;1.20;99.90
54260;DHT22;40172;53.022;7.012;2023-03-01T09:04:32;-1.00;99.90
54260;DHT22;40172;53.022;7.012;2023-03-01T09:07:40;-1.60;99.90
54260;DHT22;40172;53.022;7.012;2023-03-01T09:10:55;-0.90;99.90
54260;DHT22;40172;53.022;7.012;2023-03-01T09:20:24;-1.20;99.90
54260;DHT22;40172;53.022;7.012;2023-03-01T09:23:29;-1.10;99.90
54260;DHT22;40172;53.022;7.012;2023-03-01T09:29:06;-0.80;99.90
54260;DHT22;40172;53.022;7.012;2023-03-01T09:31:41;-0.50;99.90
54260;DHT22;40172;53.022;7.012;2023-03-01T09:34:20;1.50;99.90
54260;DHT22;40172;53.022;7.012;2023-03-01T09:36:51;-1.10;99.90
54260;DHT22;40172;53.022;7.012;2023-03-01T09:39:17;-0.40;99.90
54260;DHT22;40172;53.022;7.012;2023-03-01T09:41:48;1.00;99.90
54260;DHT22;40172;53.022;7.012;2023-03-01T09:46:55;2.40;99.90
54260;DHT22;40172;53.022;7.012;2023-03-01T09:49:27;0.10;99.90
54260;DHT22;40172;53.022;7.012;2023-03-01T09:52:07;0.70;99.90
54260;DHT22;40172;53.022;7.012;2023-03-01T09:55:05;2.60;99.90
54260;DHT22;40172;53.022;7.012;2023-03-01T09:57:55;1.50;99.90
54260;DHT22;40172;53.022;7.012;2023-03-01T10:00:42;0.50;99.90
54260;DHT22;40172;53.022;7.012;2023-03-01T10:03:13;1.20;99.90
54260;DHT22;40172;53.022;7.012;2023-03-01T10:18:13;1.10;99.90
54260;DHT22;40172;53.022;7.012;2023-03-01T10:23:13;2.30;99.90
54260;DHT22;40172;53.022;7.012;2023-03-01T10:30:54;4.30;99.90
54260;DHT22;40172;53.022;7.012;2023-03-01T10:33:32;3.00;99.90
54260;DHT22;40172;53.022;7.012;2023-03-01T10:36:01;3.10;99.90
54260;DHT22;40172;53.022;7.012;2023-03-01T10:38:33;3.30;99.90
54260;DHT22;40172;53.022;7.012;2023-03-01T10:41:11;3.40;99.90
54260;DHT22;40172;53.022;7.012;2023-03-01T10:43:58;3.60;99.90
54260;DHT22;40172;53.022;7.012;2023-03-01T10:46:31;3.60;99.90
54260;DHT22;40172;53.022;7.012;2023-03-01T10:49:23;3.80;99.90
54260;DHT22;40172;53.022;7.012;2023-03-01T10:51:52;4.00;99.90
54260;DHT22;40172;53.022;7.012;2023-03-01T10:54:38;4.20;99.90
54260;DHT22;40172;53.022;7.012;2023-03-01T10:57:28;4.30;99.90
54260;DHT22;40172;53.022;7.012;2023-03-01T11:02:38;4.50;99.90
54260;DHT22;40172;53.022;7.012;2023-03-01T11:07:48;4.70;99.90
54260;DHT22;40172;53.022;7.012;2023-03-01T11:10:39;4.70;99.90
54260;DHT22;40172;53.022;7.012;2023-03-01T11:13:17;6.40;99.90
54260;DHT22;40172;53.022;7.012;2023-03-01T11:15:58;4.90;99.90
54260;DHT22;40172;53.022;7.012;2023-03-01T11:18:31;5.00;99.90
54260;DHT22;40172;53.022;7.012;2023-03-01T11:21:01;5.20;99.90
54260;DHT22;40172;53.022;7.012;2023-03-01T11:23:31;5.20;99.90
54260;DHT22;40172;53.022;7.012;2023-03-01T11:26:07;5.30;99.90
54260;DHT22;40172;53.022;7.012;2023-03-01T11:28:36;5.40;99.90
54260;DHT22;40172;53.022;7.012;2023-03-01T11:31:06;5.40;99.90
54260;DHT22;40172;53.022;7.012;2023-03-01T11:34:03;5.50;99.90
54260;DHT22;40172;53.022;7.012;2023-03-01T11:36:53;5.60;99.90
54260;DHT22;40172;53.022;7.012;2023-03-01T11:39:56;5.60;99.90
54260;DHT22;40172;53.022;7.012;2023-03-01T11:42:42;5.70;99.90
54260;DHT22;40172;53.022;7.012;2023-03-01T11:45:11;5.70;99.90
54260;DHT22;40172;53.022;7.012;2023-03-01T11:50:56;6.20;99.90
54260;DHT22;40172;53.022;7.012;2023-03-01T11:56:20;6.20;99.90
54260;DHT22;40172;53.022;7.012;2023-03-01T11:59:06;6.30;99.90
54260;DHT22;40172;53.022;7.012;2023-03-01T12:07:36;6.50;99.90
54260;DHT22;40172;53.022;7.012;2023-03-01T12:13:06;6.50;99.90
54260;DHT22;40172;53.022;7.012;2023-03-01T12:15:53;6.50;99.90
54260;DHT22;40172;53.022;7.012;2023-03-01T12:21:27;6.70;99.90
54260;DHT22;40172;53.022;7.012;2023-03-01T12:24:17;6.80;99.90
54260;DHT22;40172;53.022;7.012;2023-03-01T12:32:29;7.00;99.90
54260;DHT22;40172;53.022;7.012;2023-03-01T12:38:25;7.00;99.90
54260;DHT22;40172;53.022;7.012;2023-03-01T12:44:01;7.10;99.90
54260;DHT22;40172;53.022;7.012;2023-03-01T12:46:52;7.10;99.90
54260;DHT22;40172;53.022;7.012;2023-03-01T12:51:57;7.10;99.90
54260;DHT22;40172;53.022;7.012;2023-03-01T12:54:33;7.20;99.90
54260;DHT22;40172;53.022;7.012;2023-03-01T12:57:24;7.20;99.90
54260;DHT22;40172;53.022;7.012;2023-03-01T13:00:15;7.30;99.90
54260;DHT22;40172;53.022;7.012;2023-03-01T13:08:16;7.50;99.90
54260;DHT22;40172;53.022;7.012;2023-03-01T13:10:51;7.60;99.90
54260;DHT22;40172;53.022;7.012;2023-03-01T13:13:25;7.60;99.90
54260;DHT22;40172;53.022;7.012;2023-03-01T13:15:52;7.70;99.90
54260;DHT22;40172;53.022;7.012;2023-03-01T13:20:48;7.80;99.90
54260;DHT22;40172;53.022;7.012;2023-03-01T13:26:05;7.90;99.90
54260;DHT22;40172;53.022;7.012;2023-03-01T13:31:11;7.90;99.90
54260;DHT22;40172;53.022;7.012;2023-03-01T13:33:59;8.00;99.90
54260;DHT22;40172;53.022;7.012;2023-03-01T13:38:59;8.10;99.90
54260;DHT22;40172;53.022;7.012;2023-03-01T13:44:37;8.10;99.90
54260;DHT22;40172;53.022;7.012;2023-03-01T13:49:58;8.10;99.90
54260;DHT22;40172;53.022;7.012;2023-03-01T13:57:41;8.30;99.90
54260;DHT22;40172;53.022;7.012;2023-03-01T14:00:27;8.30;99.90
54260;DHT22;40172;53.022;7.012;2023-03-01T14:03:15;8.20;99.90
54260;DHT22;40172;53.022;7.012;2023-03-01T14:05:43;8.20;99.90
54260;DHT22;40172;53.022;7.012;2023-03-01T14:08:24;8.20;99.90
54260;DHT22;40172;53.022;7.012;2023-03-01T14:21:41;8.10;99.90
54260;DHT22;40172;53.022;7.012;2023-03-01T14:24:20;8.10;99.90
54260;DHT22;40172;53.022;7.012;2023-03-01T14:26:46;8.10;99.90
54260;DHT22;40172;53.022;7.012;2023-03-01T14:29:44;8.10;99.90
54260;DHT22;40172;53.022;7.012;2023-03-01T14:32:26;8.20;99.90
54260;DHT22;40172;53.022;7.012;2023-03-01T14:34:52;8.10;99.90
54260;DHT22;40172;53.022;7.012;2023-03-01T14:37:33;8.20;99.90
54260;DHT22;40172;53.022;7.012;2023-03-01T14:40:01;8.20;99.90
54260;DHT22;40172;53.022;7.012;2023-03-01T14:42:30;8.30;99.90
54260;DHT22;40172;53.022;7.012;2023-03-01T14:44:57;8.30;99.90
54260;DHT22;40172;53.022;7.012;2023-03-01T14:52:55;8.40;99.90
54260;DHT22;40172;53.022;7.012;2023-03-01T14:55:27;8.40;99.90
54260;DHT22;40172;53.022;7.012;2023-03-01T14:57:52;8.40;99.90
54260;DHT22;40172;53.022;7.012;2023-03-01T15:00:25;8.30;99.90
54260;DHT22;40172;53.022;7.012;2023-03-01T15:02:53;8.30;99.90
54260;DHT22;40172;53.022;7.012;2023-03-01T15:05:26;8.30;99.90
54260;DHT22;40172;53.022;7.012;2023-03-01T15:07:53;8.30;99.90
54260;DHT22;40172;53.022;7.012;2023-03-01T15:10:25;8.30;99.90
54260;DHT22;40172;53.022;7.012;2023-03-01T15:12:51;8.40;99.90
54260;DHT22;40172;53.022;7.012;2023-03-01T15:15:34;8.40;99.90
54260;DHT22;40172;53.022;7.012;2023-03-01T15:18:03;8.40;99.90
54260;DHT22;40172;53.022;7.012;2023-03-01T15:20:30;8.30;99.90
54260;DHT22;40172;53.022;7.012;2023-03-01T15:23:01;8.30;99.90
54260;DHT22;40172;53.022;7.012;2023-03-01T15:25:29;8.20;99.90
54260;DHT22;40172;53.022;7.012;2023-03-01T15:27:57;8.20;99.90
54260;DHT22;40172;53.022;7.012;2023-03-01T15:30:24;8.10;99.90
54260;DHT22;40172;53.022;7.012;2023-03-01T15:35:47;8.20;99.90
54260;DHT22;40172;53.022;7.012;2023-03-01T15:38:49;8.10;99.90
54260;DHT22;40172;53.022;7.012;2023-03-01T15:41:48;8.00;99.90
54260;DHT22;40172;53.022;7.012;2023-03-01T15:44:35;8.00;99.90
54260;DHT22;40172;53.022;7.012;2023-03-01T15:47:01;7.90;99.90
54260;DHT22;40172;53.022;7.012;2023-03-01T15:49:39;7.90;99.90
54260;DHT22;40172;53.022;7.012;2023-03-01T15:52:10;7.80;99.90
54260;DHT22;40172;53.022;7.012;2023-03-01T15:54:39;7.80;99.90
54260;DHT22;40172;53.022;7.012;2023-03-01T15:57:12;7.80;99.90
54260;DHT22;40172;53.022;7.012;2023-03-01T15:59:38;7.80;99.90
54260;DHT22;40172;53.022;7.012;2023-03-01T16:02:09;7.70;99.90
54260;DHT22;40172;53.022;7.012;2023-03-01T16:04:36;9.20;99.90
54260;DHT22;40172;53.022;7.012;2023-03-01T16:07:01;7.70;99.90
54260;DHT22;40172;53.022;7.012;2023-03-01T16:09:27;7.60;99.90
54260;DHT22;40172;53.022;7.012;2023-03-01T16:11:53;7.60;99.90
54260;DHT22;40172;53.022;7.012;2023-03-01T16:14:20;7.50;99.90
54260;DHT22;40172;53.022;7.012;2023-03-01T16:16:46;7.50;99.90
54260;DHT22;40172;53.022;7.012;2023-03-01T16:19:13;7.50;99.90
54260;DHT22;40172;53.022;7.012;2023-03-01T16:21:40;7.40;99.90
54260;DHT22;40172;53.022;7.012;2023-03-01T16:24:08;7.30;99.90
54260;DHT22;40172;53.022;7.012;2023-03-01T16:26:34;7.30;99.90
54260;DHT22;40172;53.022;7.012;2023-03-01T16:29:00;7.20;99.90
54260;DHT22;40172;53.022;7.012;2023-03-01T16:31:26;7.10;99.90
54260;DHT22;40172;53.022;7.012;2023-03-01T16:33:54;8.30;99.90
54260;DHT22;40172;53.022;7.012;2023-03-01T16:36:21;6.90;99.90
54260;DHT22;40172;53.022;7.012;2023-03-01T16:38:50;6.80;99.90
54260;DHT22;40172;53.022;7.012;2023-03-01T16:41:17;6.70;99.90
54260;DHT22;40172;53.022;7.012;2023-03-01T16:43:44;6.60;99.90
54260;DHT22;40172;53.022;7.012;2023-03-01T16:46:13;6.60;99.90
54260;DHT22;40172;53.022;7.012;2023-03-01T16:48:41;6.40;99.90
54260;DHT22;40172;53.022;7.012;2023-03-01T16:51:07;6.40;99.90
54260;DHT22;40172;53.022;7.012;2023-03-01T16:53:34;6.30;99.90
54260;DHT22;40172;53.022;7.012;2023-03-01T16:56:02;6.20;99.90
54260;DHT22;40172;53.022;7.012;2023-03-01T16:58:28;6.10;99.90
54260;DHT22;40172;53.022;7.012;2023-03-01T17:00:55;6.00;99.90
54260;DHT22;40172;53.022;7.012;2023-03-01T17:03:25;5.90;99.90
54260;DHT22;40172;53.022;7.012;2023-03-01T17:05:51;5.70;99.90
54260;DHT22;40172;53.022;7.012;2023-03-01T17:08:17;5.60;99.90
54260;DHT22;40172;53.022;7.012;2023-03-01T17:10:43;5.50;99.90
54260;DHT22;40172;53.022;7.012;2023-03-01T17:13:10;5.40;99.90
54260;DHT22;40172;53.022;7.012;2023-03-01T17:15:40;5.20;99.90
54260;DHT22;40172;53.022;7.012;2023-03-01T17:18:06;5.10;99.90
54260;DHT22;40172;53.022;7.012;2023-03-01T17:20:31;5.00;99.90
54260;DHT22;40172;53.022;7.012;2023-03-01T17:22:57;4.90;99.90
54260;DHT22;40172;53.022;7.012;2023-03-01T17:25:23;4.80;99.90
54260;DHT22;40172;53.022;7.012;2023-03-01T17:27:48;4.80;99.90
54260;DHT22;40172;53.022;7.012;2023-03-01T17:30:14;4.70;99.90
54260;DHT22;40172;53.022;7.012;2023-03-01T17:32:40;4.60;99.90
54260;DHT22;40172;53.022;7.012;2023-03-01T17:35:06;4.50;99.90
54260;DHT22;40172;53.022;7.012;2023-03-01T17:37:32;4.50;99.90
54260;DHT22;40172;53.022;7.012;2023-03-01T17:39:58;4.40;99.90
54260;DHT22;40172;53.022;7.012;2023-03-01T17:42:24;4.30;99.90
54260;DHT22;40172;53.022;7.012;2023-03-01T17:44:49;4.20;99.90
54260;DHT22;40172;53.022;7.012;2023-03-01T17:47:15;4.20;99.90
54260;DHT22;40172;53.022;7.012;2023-03-01T17:49:40;4.10;99.90
54260;DHT22;40172;53.022;7.012;2023-03-01T17:52:06;4.00;99.90
54260;DHT22;40172;53.022;7.012;2023-03-01T17:54:32;4.00;99.90
54260;DHT22;40172;53.022;7.012;2023-03-01T17:56:58;3.90;99.90
54260;DHT22;40172;53.022;7.012;2023-03-01T17:59:24;3.80;99.90
54260;DHT22;40172;53.022;7.012;2023-03-01T18:01:56;3.70;99.90
54260;DHT22;40172;53.022;7.012;2023-03-01T18:04:22;3.70;99.90
54260;DHT22;40172;53.022;7.012;2023-03-01T18:06:48;3.60;99.90
54260;DHT22;40172;53.022;7.012;2023-03-01T18:09:14;3.60;99.90